ESMQ

Kalmar Airport

Sweden
TAF ESMQ 261130Z 2612/2621 27014KT CAVOK
Issued Valid From Valid To
Apr-26 @ 11:30 UTC
(2 hours ago)
Apr-26 @ 12:00 UTC
(2 hours ago)
Apr-26 @ 21:00 UTC
(in 7 hours)
Apr-26 @ 12:00 to Apr-26 @ 21:00
TAF ESMQ 261130Z 2612/2621 27014KT CAVOK
Wind Visibility Clouds Conditions
270° at 14 knots 10,000+ meters
  • No significant clouds
TAF ESMQ 261130Z 2612/2621 27014KT CAVOK
Issued Apr-26 @ 11:30 UTC
(2 hours ago)
Valid From Apr-26 @ 12:00 UTC
(2 hours ago)
Valid To Apr-26 @ 21:00 UTC
(in 7 hours)
Apr-26 @ 12:00 - Apr-26 @ 21:00
Wind Visibility
270° at 14 knots 10,000+ meters
Clouds
  • No significant clouds
Conditions